Time;durP1;ratioP1;P1;durP2;ratioP2;P2;SDS_P1;SDS_P2;PMS_P1;PMS_P2;Temp;Humidity;BMP_temperature;BMP_pressure;BME280_temperature;BME280_humidity;BME280_pressure;Samples;Min_cycle;Max_cycle;Signal;HPM_P1;HPM_P2
2022/04/18 00:01:55;;;;;;;5.22;2.10;;;8.20;82.90;;;;;;5006464;28;20504;-76
2022/04/18 00:04:21;;;;;;;8.70;2.45;;;8.00;82.90;;;;;;4997745;28;20048;-76
2022/04/18 00:06:46;;;;;;;5.32;2.50;;;8.10;82.90;;;;;;4993014;28;20046;-76
2022/04/18 00:09:12;;;;;;;6.10;2.17;;;7.90;83.40;;;;;;5006708;28;20034;-76
2022/04/18 00:11:38;;;;;;;5.65;2.35;;;7.90;83.30;;;;;;4998511;28;20026;-75
2022/04/18 00:14:04;;;;;;;5.93;1.83;;;7.90;83.40;;;;;;5004155;28;20488;-76
2022/04/18 00:16:29;;;;;;;6.50;2.15;;;7.90;83.30;;;;;;5002839;28;20030;-75
2022/04/18 00:18:55;;;;;;;7.80;2.67;;;7.90;83.70;;;;;;5011197;28;20040;-76
2022/04/18 00:21:21;;;;;;;5.38;2.63;;;7.90;82.70;;;;;;5014080;28;20034;-76
2022/04/18 00:23:47;;;;;;;6.85;2.30;;;7.90;82.70;;;;;;5015367;28;20034;-76
2022/04/18 00:26:12;;;;;;;6.93;2.83;;;7.90;82.90;;;;;;5015818;28;20373;-76
2022/04/18 00:28:38;;;;;;;8.13;2.25;;;7.80;83.40;;;;;;5015576;28;20072;-76
2022/04/18 00:31:04;;;;;;;4.18;2.20;;;7.90;82.80;;;;;;5015669;28;20058;-76
2022/04/18 00:33:30;;;;;;;5.90;2.88;;;8.20;81.80;;;;;;5015693;28;20467;-76
2022/04/18 00:35:56;;;;;;;5.25;2.60;;;8.20;81.70;;;;;;5015441;28;20065;-76
2022/04/18 00:38:22;;;;;;;5.70;2.33;;;8.20;81.70;;;;;;5015689;28;20026;-76
2022/04/18 00:40:49;;;;;;;4.38;2.05;;;8.10;82.20;;;;;;5015047;28;20030;-75
2022/04/18 00:43:14;;;;;;;9.23;2.10;;;8.30;82.30;;;;;;5015116;28;20022;-76
2022/04/18 00:45:40;;;;;;;4.70;1.90;;;8.30;81.80;;;;;;5015098;28;20057;-76
2022/04/18 00:48:06;;;;;;;7.20;2.30;;;8.10;82.00;;;;;;5015068;28;20365;-76
2022/04/18 00:50:33;;;;;;;7.18;2.58;;;8.00;82.60;;;;;;5013147;28;20333;-76
2022/04/18 00:52:59;;;;;;;8.40;2.75;;;8.10;82.00;;;;;;5014937;28;20034;-76
2022/04/18 00:55:26;;;;;;;8.13;2.60;;;8.00;82.50;;;;;;5014916;28;20396;-76
2022/04/18 00:57:54;;;;;;;7.75;2.30;;;8.10;82.70;;;;;;5014495;28;20099;-76
2022/04/18 01:00:23;;;;;;;5.78;3.08;;;8.10;82.60;;;;;;5015100;28;20496;-76
2022/04/18 01:02:49;;;;;;;10.05;2.38;;;8.10;82.50;;;;;;5013832;28;20388;-76
2022/04/18 01:05:14;;;;;;;6.53;2.40;;;8.20;82.50;;;;;;5013409;28;20048;-76
2022/04/18 01:07:40;;;;;;;3.80;2.40;;;7.80;82.80;;;;;;4995520;28;20056;-76
2022/04/18 01:10:07;;;;;;;4.95;2.10;;;7.80;83.20;;;;;;4995971;28;20034;-75
2022/04/18 01:12:34;;;;;;;4.53;2.10;;;7.50;83.30;;;;;;4995377;28;20027;-76
2022/04/18 01:15:00;;;;;;;5.05;2.30;;;7.20;84.60;;;;;;5001923;28;20469;-75
2022/04/18 01:17:26;;;;;;;8.00;2.88;;;7.20;85.10;;;;;;5006399;28;20030;-76
2022/04/18 01:19:52;;;;;;;5.72;2.20;;;6.90;85.80;;;;;;5014638;28;20100;-75
2022/04/18 01:22:22;;;;;;;5.70;2.10;;;6.80;86.40;;;;;;5012604;28;20029;-75
2022/04/18 01:30:16;;;;;;;4.13;1.98;;;6.90;86.50;;;;;;5014717;28;20100;-75
2022/04/18 01:32:45;;;;;;;9.55;2.88;;;6.90;85.80;;;;;;5003899;28;20484;-75
2022/04/18 01:35:10;;;;;;;6.90;2.20;;;7.30;84.90;;;;;;4994502;28;20034;-76
2022/04/18 01:37:37;;;;;;;3.95;1.50;;;7.00;85.60;;;;;;5002180;28;20052;-75
2022/04/18 01:40:06;;;;;;;4.05;2.22;;;6.70;86.80;;;;;;5012608;28;20080;-76
2022/04/18 01:42:32;;;;;;;7.55;2.17;;;6.70;86.30;;;;;;5007110;28;20054;-75
2022/04/18 01:44:59;;;;;;;7.68;2.45;;;6.70;86.10;;;;;;4998879;28;20429;-75
2022/04/18 01:47:25;;;;;;;6.47;2.13;;;6.70;86.30;;;;;;5013949;28;20057;-75
2022/04/18 01:49:50;;;;;;;6.38;2.30;;;6.70;87.00;;;;;;5010075;28;20053;-76
2022/04/18 01:52:16;;;;;;;6.35;2.47;;;6.60;86.70;;;;;;4994304;28;20031;-76
2022/04/18 01:54:42;;;;;;;4.82;1.75;;;6.60;86.80;;;;;;5001690;28;20034;-75
2022/04/18 01:57:07;;;;;;;4.68;2.35;;;6.40;87.90;;;;;;5013912;28;20029;-75
2022/04/18 01:59:33;;;;;;;8.38;2.30;;;6.40;87.80;;;;;;5007545;28;20493;-75
2022/04/18 02:01:58;;;;;;;8.10;2.40;;;6.40;88.50;;;;;;4994318;28;20031;-76
2022/04/18 02:04:24;;;;;;;4.10;2.08;;;6.20;88.90;;;;;;5000255;28;20447;-75
2022/04/18 02:06:50;;;;;;;4.97;2.47;;;6.20;89.10;;;;;;5007431;28;20050;-75
2022/04/18 02:09:15;;;;;;;7.50;2.25;;;6.30;88.40;;;;;;5013356;28;20025;-75
2022/04/18 02:11:41;;;;;;;4.35;2.50;;;6.40;88.10;;;;;;5013207;28;20026;-75
2022/04/18 02:14:06;;;;;;;9.13;2.42;;;6.50;87.70;;;;;;5005936;28;20065;-75
2022/04/18 02:16:32;;;;;;;6.63;2.30;;;6.50;88.00;;;;;;4994029;28;20400;-75
2022/04/18 02:18:58;;;;;;;4.60;2.20;;;6.50;87.90;;;;;;5012267;28;20420;-76
2022/04/18 02:21:23;;;;;;;6.97;2.25;;;6.60;87.60;;;;;;5013447;28;20041;-75
2022/04/18 02:23:49;;;;;;;7.80;2.50;;;6.60;88.00;;;;;;4999773;28;20442;-75
2022/04/18 02:26:15;;;;;;;4.68;2.28;;;6.50;87.90;;;;;;5013328;28;20038;-75
2022/04/18 02:28:41;;;;;;;6.13;2.53;;;6.40;88.60;;;;;;4997185;28;20026;-76
2022/04/18 02:31:07;;;;;;;7.03;2.45;;;6.70;87.80;;;;;;4992015;28;20392;-75
2022/04/18 02:33:33;;;;;;;6.85;2.13;;;6.80;87.10;;;;;;5004492;28;20096;-76
2022/04/18 02:36:01;;;;;;;6.15;2.15;;;6.80;86.80;;;;;;4993446;28;20448;-76
2022/04/18 02:38:27;;;;;;;8.95;2.92;;;6.90;86.80;;;;;;5005273;28;20468;-75
2022/04/18 02:40:52;;;;;;;6.20;2.42;;;6.70;87.30;;;;;;5013010;28;20076;-75
2022/04/18 02:43:18;;;;;;;6.07;2.40;;;6.70;87.20;;;;;;5001122;28;20038;-75
2022/04/18 02:45:44;;;;;;;6.72;2.65;;;6.70;87.00;;;;;;5012932;28;20080;-75
2022/04/18 02:48:09;;;;;;;7.05;2.38;;;6.60;87.10;;;;;;5003760;28;20023;-75
2022/04/18 02:50:35;;;;;;;8.07;2.40;;;6.80;87.00;;;;;;5008611;28;20061;-75
2022/04/18 02:53:01;;;;;;;6.20;2.15;;;6.60;86.90;;;;;;5005424;28;20504;-75
2022/04/18 02:55:26;;;;;;;5.90;2.38;;;6.50;87.50;;;;;;5010151;28;20120;-75
2022/04/18 02:57:52;;;;;;;4.28;2.10;;;6.80;86.70;;;;;;5007355;28;20046;-75
2022/04/18 03:00:18;;;;;;;4.55;2.60;;;6.50;87.50;;;;;;4993864;28;20022;-75
2022/04/18 03:02:44;;;;;;;5.45;2.42;;;6.20;88.40;;;;;;4991715;28;20031;-75
2022/04/18 03:05:11;;;;;;;4.30;1.98;;;6.10;89.10;;;;;;5001884;28;20045;-75
2022/04/18 03:07:37;;;;;;;7.97;2.47;;;6.20;88.60;;;;;;5007989;28;20021;-76
2022/04/18 03:10:04;;;;;;;7.43;3.00;;;6.20;89.00;;;;;;5002462;28;20059;-75
2022/04/18 03:12:29;;;;;;;4.75;2.00;;;6.10;89.00;;;;;;4988183;28;20492;-76
2022/04/18 03:14:55;;;;;;;6.72;2.17;;;5.90;89.50;;;;;;5000326;28;20037;-76
2022/04/18 03:17:21;;;;;;;9.95;3.08;;;6.10;89.40;;;;;;5000021;28;20568;-75
2022/04/18 03:19:47;;;;;;;7.82;2.45;;;6.10;88.70;;;;;;4995325;28;20040;-76
2022/04/18 03:22:12;;;;;;;6.68;2.53;;;6.10;89.40;;;;;;5004987;28;20041;-76
2022/04/18 03:24:38;;;;;;;6.68;2.42;;;6.20;89.70;;;;;;5005815;28;20030;-76
2022/04/18 03:27:04;;;;;;;9.73;2.60;;;6.30;89.00;;;;;;5007547;28;20034;-76
2022/04/18 03:29:31;;;;;;;9.93;2.22;;;6.70;87.60;;;;;;4999296;28;20037;-76
2022/04/18 03:31:58;;;;;;;9.35;2.63;;;6.50;87.50;;;;;;4988118;28;20026;-75
2022/04/18 03:34:24;;;;;;;7.93;2.83;;;6.50;88.00;;;;;;4995403;28;20476;-76
2022/04/18 03:42:29;;;;;;;5.80;2.63;;;6.50;87.50;;;;;;4988228;28;20118;-75
2022/04/18 03:44:57;;;;;;;7.10;3.00;;;6.50;87.90;;;;;;5000536;28;20022;-76
2022/04/18 03:47:23;;;;;;;8.43;2.70;;;6.70;87.30;;;;;;5006943;28;20103;-76
2022/04/18 03:49:49;;;;;;;5.40;2.30;;;6.70;87.50;;;;;;5004087;28;20034;-76
2022/04/18 03:52:14;;;;;;;9.00;2.97;;;6.70;87.20;;;;;;5004295;28;20393;-76
2022/04/18 03:54:40;;;;;;;6.35;2.28;;;6.30;87.80;;;;;;5002557;28;20092;-75
2022/04/18 03:57:06;;;;;;;4.75;2.03;;;6.30;87.70;;;;;;5002283;28;20643;-75
2022/04/18 03:59:32;;;;;;;7.43;2.40;;;6.40;87.60;;;;;;5004399;28;20400;-76
2022/04/18 04:01:58;;;;;;;12.18;2.28;;;6.20;88.10;;;;;;5003500;28;20097;-76
2022/04/18 04:04:25;;;;;;;4.38;1.83;;;5.90;90.10;;;;;;4997084;28;20076;-76
2022/04/18 04:06:50;;;;;;;4.80;2.30;;;5.70;90.20;;;;;;5006265;28;20034;-75
2022/04/18 04:09:16;;;;;;;5.15;2.20;;;5.80;89.70;;;;;;4987507;28;20026;-76
2022/04/18 04:11:42;;;;;;;5.78;2.13;;;6.10;88.50;;;;;;4987643;28;20038;-76
2022/04/18 04:14:08;;;;;;;6.30;2.45;;;6.30;87.60;;;;;;4998472;28;20018;-76
2022/04/18 04:16:33;;;;;;;5.72;2.28;;;6.30;88.90;;;;;;4987780;28;20058;-76
2022/04/18 04:18:59;;;;;;;7.95;2.40;;;6.40;89.00;;;;;;5004326;28;20033;-76
2022/04/18 04:21:25;;;;;;;7.15;2.03;;;6.20;89.50;;;;;;5007249;28;20032;-76
2022/04/18 04:23:50;;;;;;;6.43;2.75;;;5.90;90.10;;;;;;4997398;28;20054;-76
2022/04/18 04:26:16;;;;;;;4.65;2.53;;;5.70;90.30;;;;;;4989613;28;20038;-76
2022/04/18 04:28:41;;;;;;;5.63;2.40;;;5.70;90.40;;;;;;4987803;28;20062;-76
2022/04/18 04:31:07;;;;;;;5.53;2.00;;;5.50;90.80;;;;;;4988556;28;20022;-76
2022/04/18 04:33:33;;;;;;;5.88;2.30;;;5.70;90.30;;;;;;4996169;28;20038;-76
2022/04/18 04:35:59;;;;;;;8.15;2.08;;;5.50;90.30;;;;;;5003811;28;20145;-76
2022/04/18 04:38:28;;;;;;;7.45;2.17;;;5.40;90.40;;;;;;4987682;28;20465;-75
2022/04/18 04:40:54;;;;;;;4.72;2.03;;;5.50;90.20;;;;;;4988893;28;20022;-75
2022/04/18 04:43:20;;;;;;;7.28;2.38;;;5.50;90.30;;;;;;4987999;28;20365;-75
2022/04/18 04:45:46;;;;;;;5.45;2.20;;;5.60;91.00;;;;;;4988693;28;20037;-75
2022/04/18 04:48:12;;;;;;;8.50;3.17;;;5.90;90.70;;;;;;5005146;28;20022;-76
2022/04/18 04:50:39;;;;;;;4.38;2.20;;;6.20;90.30;;;;;;5007015;28;20101;-75
2022/04/18 04:53:05;;;;;;;6.85;2.80;;;5.90;90.50;;;;;;4987726;28;20671;-75
2022/04/18 04:55:31;;;;;;;5.72;2.65;;;5.70;90.60;;;;;;5003454;28;20112;-75
2022/04/18 04:57:57;;;;;;;5.40;2.97;;;5.70;90.70;;;;;;5004430;28;20515;-75
2022/04/18 05:00:22;;;;;;;6.25;2.72;;;5.60;90.80;;;;;;4989652;28;20149;-75
2022/04/18 05:02:48;;;;;;;14.77;3.78;;;5.40;91.10;;;;;;5006331;28;20034;-75
2022/04/18 05:05:14;;;;;;;4.43;2.00;;;5.30;91.30;;;;;;5006454;28;20100;-75
2022/04/18 05:07:39;;;;;;;6.93;3.05;;;5.30;91.40;;;;;;5009242;28;20109;-75
2022/04/18 05:10:06;;;;;;;4.75;2.80;;;5.40;91.40;;;;;;5009088;28;20598;-75
2022/04/18 05:12:32;;;;;;;6.30;2.25;;;5.50;91.50;;;;;;5010630;28;20089;-76
2022/04/18 05:15:05;;;;;;;10.63;2.72;;;5.40;91.50;;;;;;4992450;28;20457;-76
2022/04/18 05:17:31;;;;;;;6.82;2.28;;;5.50;91.50;;;;;;4991127;28;20041;-75
2022/04/18 05:19:57;;;;;;;4.88;2.30;;;5.30;91.60;;;;;;5008685;28;20030;-76
2022/04/18 05:22:23;;;;;;;9.18;1.92;;;5.20;92.10;;;;;;5009984;28;20030;-75
2022/04/18 05:24:49;;;;;;;4.97;2.42;;;5.40;92.10;;;;;;4990798;28;20460;-76
2022/04/18 05:27:15;;;;;;;5.32;2.13;;;5.30;92.10;;;;;;4990858;28;20025;-76
2022/04/18 05:29:44;;;;;;;6.55;2.42;;;5.30;92.10;;;;;;5008374;28;20025;-76
2022/04/18 05:32:11;;;;;;;6.07;2.50;;;5.20;92.20;;;;;;5007078;28;20101;-76
2022/04/18 05:34:37;;;;;;;5.53;2.35;;;5.20;92.30;;;;;;4988505;28;20109;-76
2022/04/18 05:37:04;;;;;;;5.18;2.20;;;5.20;92.30;;;;;;4992913;28;20130;-76
2022/04/18 05:39:30;;;;;;;6.85;2.50;;;5.30;92.20;;;;;;5004956;28;20412;-76
2022/04/18 05:41:58;;;;;;;5.70;2.15;;;5.50;91.90;;;;;;5000444;28;20030;-75
2022/04/18 05:44:24;;;;;;;6.45;2.20;;;5.70;91.70;;;;;;4990555;28;20054;-76
2022/04/18 05:46:50;;;;;;;9.43;2.58;;;5.90;91.60;;;;;;5001578;28;20057;-76
2022/04/18 05:49:16;;;;;;;7.20;2.17;;;5.70;91.60;;;;;;4995481;28;20069;-76
2022/04/18 05:51:41;;;;;;;4.60;2.25;;;5.40;92.30;;;;;;5002740;28;20038;-75
2022/04/18 05:54:07;;;;;;;5.30;2.15;;;5.30;92.30;;;;;;4990912;28;20037;-76
2022/04/18 05:56:33;;;;;;;4.85;1.70;;;5.50;92.10;;;;;;5001194;28;20048;-76
2022/04/18 05:58:59;;;;;;;3.72;2.05;;;5.60;91.90;;;;;;5007727;28;20040;-76
2022/04/18 06:01:25;;;;;;;5.20;2.22;;;5.80;91.70;;;;;;4994210;28;20366;-76
2022/04/18 06:03:51;;;;;;;5.78;3.03;;;6.10;91.40;;;;;;4997416;28;20033;-75
2022/04/18 06:06:16;;;;;;;5.25;2.15;;;6.10;91.40;;;;;;5006945;28;20542;-76
2022/04/18 06:08:42;;;;;;;5.50;2.55;;;6.10;91.40;;;;;;5005411;28;20037;-76
2022/04/18 06:11:08;;;;;;;6.72;2.38;;;6.20;91.20;;;;;;5006411;28;20413;-76
2022/04/18 06:13:34;;;;;;;5.38;2.30;;;6.40;91.30;;;;;;4998591;28;20042;-76
2022/04/18 06:16:00;;;;;;;7.97;2.15;;;6.40;91.70;;;;;;4987630;28;20023;-75
2022/04/18 06:18:27;;;;;;;10.32;2.13;;;6.50;92.00;;;;;;4986972;28;20046;-76
2022/04/18 06:20:53;;;;;;;5.53;2.65;;;6.60;91.20;;;;;;4986797;28;20113;-75
2022/04/18 06:23:18;;;;;;;7.03;2.30;;;6.60;91.10;;;;;;4991443;28;20428;-76
2022/04/18 06:25:44;;;;;;;4.88;2.08;;;6.80;90.90;;;;;;5006101;28;20026;-76
2022/04/18 06:28:12;;;;;;;6.38;2.22;;;6.90;90.50;;;;;;4987374;28;20397;-76
2022/04/18 06:30:38;;;;;;;9.02;1.98;;;7.00;90.30;;;;;;4985386;28;20034;-76
2022/04/18 06:33:03;;;;;;;7.70;2.95;;;7.10;90.10;;;;;;5002744;28;20064;-76
2022/04/18 06:35:29;;;;;;;7.03;3.10;;;7.10;90.00;;;;;;5005700;28;20118;-76
2022/04/18 06:37:55;;;;;;;8.77;2.53;;;7.30;89.80;;;;;;5002381;28;20084;-76
2022/04/18 06:40:20;;;;;;;5.85;2.90;;;7.60;90.00;;;;;;4986241;28;20038;-76
2022/04/18 06:42:46;;;;;;;5.78;2.78;;;7.90;90.00;;;;;;5000111;28;20098;-76
2022/04/18 06:45:12;;;;;;;8.10;2.88;;;8.10;89.50;;;;;;5005886;28;20082;-76
2022/04/18 06:47:37;;;;;;;7.07;3.10;;;8.70;88.60;;;;;;5000255;28;20037;-76
2022/04/18 06:50:08;;;;;;;7.82;4.05;;;9.50;86.70;;;;;;4988709;28;20046;-76
2022/04/18 06:52:41;;;;;;;8.57;3.85;;;10.10;85.50;;;;;;5005866;28;20029;-76
2022/04/18 06:55:08;;;;;;;5.03;2.22;;;11.20;82.10;;;;;;5003840;28;20073;-76
2022/04/18 06:57:34;;;;;;;7.85;2.70;;;12.50;78.20;;;;;;5005682;28;20061;-76
2022/04/18 07:00:00;;;;;;;6.63;2.78;;;13.50;75.30;;;;;;4987394;28;20412;-76
2022/04/18 07:02:26;;;;;;;17.65;2.92;;;14.70;72.60;;;;;;5005230;28;20820;-76
2022/04/18 07:04:53;;;;;;;7.85;3.75;;;15.50;70.20;;;;;;5003876;28;20030;-76
2022/04/18 07:07:18;;;;;;;13.13;4.90;;;16.60;68.20;;;;;;5004481;28;20410;-76
2022/04/18 07:09:44;;;;;;;19.65;10.32;;;17.30;68.00;;;;;;4989159;28;20109;-76
2022/04/18 07:12:09;;;;;;;19.58;11.82;;;18.20;67.50;;;;;;4985953;28;20103;-76
2022/04/18 07:14:36;;;;;;;18.90;7.15;;;18.60;67.80;;;;;;4986794;28;20493;-76
2022/04/18 07:17:02;;;;;;;9.43;4.78;;;19.00;66.00;;;;;;5001125;28;20428;-76
2022/04/18 07:19:28;;;;;;;8.27;3.40;;;18.30;65.40;;;;;;4991443;28;20831;-76
2022/04/18 07:21:55;;;;;;;7.38;3.85;;;18.30;64.10;;;;;;4986474;28;20110;-76
2022/04/18 07:24:22;;;;;;;7.25;2.70;;;18.60;64.60;;;;;;4985280;28;20022;-76
2022/04/18 07:26:48;;;;;;;15.05;7.32;;;18.50;64.10;;;;;;4994188;28;20018;-74
2022/04/18 07:29:14;;;;;;;10.00;5.00;;;19.10;63.20;;;;;;5004447;28;20504;-75
2022/04/18 07:31:39;;;;;;;9.48;4.47;;;18.70;63.80;;;;;;5003322;28;20030;-74
2022/04/18 07:34:05;;;;;;;9.85;4.63;;;18.40;64.70;;;;;;5004621;28;20096;-76
2022/04/18 07:36:31;;;;;;;6.60;3.60;;;14.70;68.90;;;;;;5003089;28;20057;-76
2022/04/18 07:38:56;;;;;;;9.10;3.78;;;12.00;73.80;;;;;;5004431;28;20042;-76
2022/04/18 07:41:24;;;;;;;9.88;4.35;;;11.00;76.20;;;;;;4997389;28;20499;-76
2022/04/18 07:43:51;;;;;;;14.70;4.50;;;10.60;78.10;;;;;;4985298;28;20519;-76
2022/04/18 07:46:17;;;;;;;6.78;3.15;;;10.10;79.20;;;;;;4985601;28;20037;-76
2022/04/18 07:48:49;;;;;;;5.15;2.58;;;10.10;78.30;;;;;;4996601;28;20041;-75
2022/04/18 07:54:01;;;;;;;4.60;2.30;;;9.90;77.20;;;;;;4984835;28;20041;-76
2022/04/18 07:56:26;;;;;;;11.32;3.38;;;9.80;76.60;;;;;;4999803;28;20026;-76
2022/04/18 07:58:53;;;;;;;16.98;3.58;;;9.90;77.50;;;;;;5004327;28;20041;-76
2022/04/18 08:01:20;;;;;;;22.25;6.55;;;9.90;77.30;;;;;;4986727;28;20062;-76
2022/04/18 08:03:46;;;;;;;17.10;7.90;;;10.00;77.60;;;;;;4986011;28;20377;-76
2022/04/18 08:06:12;;;;;;;14.35;4.75;;;10.00;76.90;;;;;;4992064;28;20072;-76
2022/04/18 08:08:38;;;;;;;12.13;3.35;;;10.10;77.10;;;;;;5004406;28;20045;-76
2022/04/18 08:11:04;;;;;;;10.20;2.75;;;10.20;76.50;;;;;;5004075;28;20144;-76
2022/04/18 08:13:30;;;;;;;8.05;2.50;;;10.30;76.30;;;;;;5004272;28;20026;-76
2022/04/18 08:15:56;;;;;;;6.80;2.72;;;10.30;75.10;;;;;;5004528;28;20107;-76
2022/04/18 08:18:22;;;;;;;5.30;3.13;;;10.10;75.50;;;;;;4998810;28;20101;-76
2022/04/18 08:20:48;;;;;;;7.13;3.38;;;10.00;76.00;;;;;;5000478;28;20025;-76
2022/04/18 08:23:14;;;;;;;10.43;5.28;;;10.20;76.80;;;;;;5004245;28;20030;-76
2022/04/18 08:25:40;;;;;;;7.00;2.83;;;10.10;75.80;;;;;;5004483;28;20380;-76
2022/04/18 08:28:06;;;;;;;8.77;3.65;;;10.20;76.90;;;;;;5004549;28;20455;-76
2022/04/18 08:30:32;;;;;;;9.40;4.18;;;10.30;75.80;;;;;;4994541;28;20125;-76
2022/04/18 08:32:58;;;;;;;6.80;3.00;;;10.50;74.70;;;;;;4988027;28;20188;-76
2022/04/18 08:35:24;;;;;;;5.93;2.40;;;10.60;74.10;;;;;;4992370;28;20030;-75
2022/04/18 08:37:49;;;;;;;11.80;5.50;;;10.80;73.90;;;;;;4999015;28;20045;-74
2022/04/18 08:40:16;;;;;;;6.53;2.80;;;12.80;72.90;;;;;;5007972;28;20105;-75
2022/04/18 08:42:42;;;;;;;5.78;2.50;;;14.80;68.90;;;;;;5003808;28;20045;-75
2022/04/18 08:45:13;;;;;;;5.82;2.20;;;15.60;67.40;;;;;;4995745;28;20156;-74
2022/04/18 08:53:11;;;;;;;3.88;2.05;;;17.30;64.60;;;;;;5007959;28;20594;-75
2022/04/18 08:55:37;;;;;;;3.15;1.83;;;17.00;64.80;;;;;;5007516;28;20030;-74
2022/04/18 08:58:07;;;;;;;9.18;2.90;;;16.90;64.50;;;;;;5002115;28;20092;-74
2022/04/18 09:00:33;;;;;;;6.15;2.88;;;17.30;65.20;;;;;;5005057;28;20117;-76
2022/04/18 09:02:59;;;;;;;3.92;1.75;;;17.90;65.10;;;;;;5004490;28;20116;-74
2022/04/18 09:05:25;;;;;;;6.28;2.30;;;17.20;64.10;;;;;;5007076;28;20056;-75
2022/04/18 09:07:59;;;;;;;7.40;2.10;;;17.20;67.60;;;;;;5007508;28;20026;-75
2022/04/18 09:10:25;;;;;;;6.45;2.63;;;17.40;65.20;;;;;;5006710;28;20030;-74
2022/04/18 09:12:52;;;;;;;5.82;2.13;;;17.00;70.50;;;;;;5005055;28;20134;-74
2022/04/18 09:15:40;;;;;;;7.38;2.10;;;16.60;67.10;;;;;;4990756;28;20121;-74
2022/04/18 09:18:15;;;;;;;8.13;2.65;;;16.30;64.70;;;;;;4992349;28;20054;-74
2022/04/18 09:20:42;;;;;;;6.55;2.63;;;15.20;66.40;;;;;;5003697;28;20492;-74
2022/04/18 09:23:20;;;;;;;11.68;4.88;;;14.50;67.40;;;;;;5009944;28;20033;-74
2022/04/18 09:25:50;;;;;;;12.60;4.40;;;14.00;68.20;;;;;;5009833;28;20038;-74
2022/04/18 09:28:16;;;;;;;7.88;2.97;;;13.70;70.00;;;;;;5007438;28;20026;-74
2022/04/18 09:30:42;;;;;;;8.05;3.55;;;14.40;69.80;;;;;;5007865;28;20103;-74
2022/04/18 09:33:08;;;;;;;8.27;2.08;;;14.40;68.20;;;;;;5009917;28;20041;-74
2022/04/18 09:35:35;;;;;;;6.70;2.38;;;14.20;67.10;;;;;;5003263;28;20041;-74
2022/04/18 09:38:06;;;;;;;9.75;4.00;;;13.90;68.20;;;;;;5003569;28;20041;-74
2022/04/18 09:40:36;;;;;;;11.15;3.72;;;13.80;68.40;;;;;;5007020;28;20025;-74
2022/04/18 09:43:03;;;;;;;4.72;2.50;;;13.90;68.70;;;;;;5000145;28;20034;-74
2022/04/18 09:45:28;;;;;;;5.68;2.33;;;14.10;68.80;;;;;;5009852;28;20104;-74
2022/04/18 09:48:01;;;;;;;7.78;2.35;;;14.00;68.50;;;;;;5008991;28;20038;-74
2022/04/18 09:53:22;;;;;;;5.15;2.03;;;14.70;67.40;;;;;;4999578;28;20060;-74
2022/04/18 09:55:50;;;;;;;5.50;2.35;;;14.50;66.30;;;;;;5009762;28;20900;-72
2022/04/18 09:58:16;;;;;;;8.07;2.55;;;14.30;67.30;;;;;;4996935;28;20049;-74
2022/04/18 10:00:42;;;;;;;9.20;2.20;;;14.40;66.80;;;;;;5008715;28;20562;-75
2022/04/18 10:03:12;;;;;;;4.18;1.77;;;14.30;68.30;;;;;;4999202;28;20022;-73
2022/04/18 10:05:39;;;;;;;7.13;2.40;;;14.50;68.20;;;;;;5007024;28;20046;-73
2022/04/18 10:08:05;;;;;;;3.40;1.83;;;14.80;67.90;;;;;;5007786;28;20026;-73
2022/04/18 10:10:35;;;;;;;8.88;2.95;;;14.80;67.30;;;;;;4998503;28;20486;-74
2022/04/18 10:13:04;;;;;;;9.25;2.75;;;15.00;66.90;;;;;;4998880;28;20057;-75
2022/04/18 10:15:30;;;;;;;4.07;1.90;;;15.10;67.30;;;;;;4998866;28;20029;-75
2022/04/18 10:18:00;;;;;;;8.30;3.28;;;15.20;65.90;;;;;;5009444;28;20034;-74
2022/04/18 10:21:03;;;;;;;9.38;2.80;;;15.30;65.50;;;;;;5004258;28;20041;-75
2022/04/18 10:23:48;;;;;;;8.05;2.25;;;15.50;64.50;;;;;;4995594;28;20094;-72
2022/04/18 10:26:57;;;;;;;11.95;4.63;;;15.30;66.50;;;;;;4997620;28;20034;-76
2022/04/18 10:29:30;;;;;;;7.97;3.17;;;15.70;65.70;;;;;;5007561;28;20050;-74
2022/04/18 10:31:59;;;;;;;4.05;1.80;;;15.60;65.00;;;;;;5004927;28;20112;-74
2022/04/18 10:34:31;;;;;;;3.92;1.73;;;15.70;64.70;;;;;;4997770;28;20030;-74
2022/04/18 10:36:59;;;;;;;14.77;8.88;;;15.90;65.70;;;;;;5000496;28;20062;-75
2022/04/18 10:39:35;;;;;;;6.07;2.72;;;16.00;65.00;;;;;;4998585;28;20439;-73
2022/04/18 10:42:30;;;;;;;7.00;2.67;;;15.90;64.10;;;;;;5007646;28;20034;-73
2022/04/18 10:45:12;;;;;;;14.63;4.40;;;16.00;64.90;;;;;;4998403;28;20120;-73
2022/04/18 10:47:58;;;;;;;10.52;4.68;;;16.20;64.60;;;;;;4989599;28;20037;-74
2022/04/18 10:50:37;;;;;;;13.63;5.50;;;16.60;64.30;;;;;;5003767;28;20026;-76
2022/04/18 10:53:19;;;;;;;6.57;2.63;;;16.40;63.30;;;;;;5008031;28;20034;-73
2022/04/18 10:55:51;;;;;;;13.35;5.00;;;16.30;65.30;;;;;;5004534;28;20096;-74
2022/04/18 10:58:21;;;;;;;10.23;3.30;;;16.50;65.30;;;;;;5007217;28;20451;-74
2022/04/18 11:00:50;;;;;;;7.20;3.13;;;16.20;64.60;;;;;;4993644;28;20040;-76
2022/04/18 11:03:37;;;;;;;7.78;3.42;;;16.40;65.00;;;;;;5006265;28;20153;-75
2022/04/18 11:06:07;;;;;;;13.82;10.65;;;16.40;64.30;;;;;;5006106;28;20057;-76
2022/04/18 11:08:38;;;;;;;7.97;3.75;;;16.60;63.00;;;;;;4988384;28;20037;-74
2022/04/18 11:11:17;;;;;;;8.85;3.30;;;16.90;65.00;;;;;;4997060;28;20026;-73
2022/04/18 11:13:46;;;;;;;7.18;2.63;;;17.20;66.30;;;;;;4999058;28;20081;-75
2022/04/18 11:16:24;;;;;;;6.60;2.28;;;16.90;66.20;;;;;;4992575;28;20041;-75
2022/04/18 11:19:09;;;;;;;4.32;1.60;;;17.20;64.60;;;;;;4999781;28;20042;-75
2022/04/18 11:22:00;;;;;;;6.72;3.17;;;17.40;65.20;;;;;;4992920;28;20606;-75
2022/04/18 11:24:54;;;;;;;4.28;1.98;;;17.30;63.80;;;;;;5006808;28;20036;-75
2022/04/18 11:27:33;;;;;;;4.88;2.40;;;17.50;65.00;;;;;;4996096;28;20622;-73
2022/04/18 11:30:12;;;;;;;5.38;2.28;;;17.50;64.70;;;;;;4990656;28;20030;-76
2022/04/18 11:32:46;;;;;;;5.15;1.70;;;17.50;63.00;;;;;;4994206;28;20022;-75
2022/04/18 11:35:13;;;;;;;5.43;2.63;;;17.80;64.70;;;;;;4990279;28;20030;-75
2022/04/18 11:37:43;;;;;;;6.05;2.65;;;17.70;63.70;;;;;;4989286;28;20088;-75
2022/04/18 11:40:14;;;;;;;6.45;2.33;;;17.60;63.50;;;;;;4996969;28;20069;-76
2022/04/18 11:42:42;;;;;;;5.13;2.38;;;18.10;64.80;;;;;;5008270;28;20026;-75
2022/04/18 11:45:10;;;;;;;4.93;1.98;;;18.30;63.00;;;;;;5007764;28;20036;-75
2022/04/18 11:47:44;;;;;;;6.93;1.60;;;18.20;63.90;;;;;;5005002;28;20018;-75
2022/04/18 11:50:11;;;;;;;4.13;2.03;;;18.10;63.50;;;;;;4991983;28;20038;-76
2022/04/18 11:52:39;;;;;;;4.65;1.95;;;18.10;62.80;;;;;;4988192;28;20109;-75
2022/04/18 11:55:11;;;;;;;6.78;1.98;;;18.10;64.60;;;;;;4998912;28;20062;-76
2022/04/18 11:57:38;;;;;;;4.30;2.08;;;18.40;63.10;;;;;;5007647;28;20022;-76
2022/04/18 12:00:07;;;;;;;9.73;3.13;;;18.70;63.00;;;;;;4989563;28;20042;-75
2022/04/18 12:08:12;;;;;;;3.67;1.92;;;18.60;62.70;;;;;;4988235;28;20080;-76
2022/04/18 12:10:42;;;;;;;5.22;1.73;;;18.70;61.50;;;;;;4987667;28;20030;-75
2022/04/18 12:13:15;;;;;;;3.88;1.77;;;18.70;61.70;;;;;;4987771;28;20030;-75
2022/04/18 12:15:42;;;;;;;4.68;1.80;;;18.80;61.70;;;;;;4987430;28;20070;-75
2022/04/18 12:18:13;;;;;;;3.53;1.65;;;19.00;63.20;;;;;;4991552;28;20047;-75
2022/04/18 12:20:50;;;;;;;4.43;1.42;;;18.90;62.40;;;;;;4991890;28;20058;-76
2022/04/18 12:23:21;;;;;;;5.57;1.67;;;19.00;61.10;;;;;;4991918;28;20117;-75
2022/04/18 12:25:51;;;;;;;3.30;1.42;;;19.10;61.50;;;;;;4990429;28;20081;-75
2022/04/18 12:28:19;;;;;;;5.05;1.90;;;18.90;61.40;;;;;;4991778;28;20026;-76
2022/04/18 12:30:46;;;;;;;4.82;1.70;;;19.00;61.30;;;;;;4991988;28;20026;-75
2022/04/18 12:33:21;;;;;;;7.93;1.88;;;19.10;61.50;;;;;;4991824;28;20392;-75
2022/04/18 12:35:53;;;;;;;10.07;2.03;;;18.80;62.20;;;;;;4991777;28;20033;-75
2022/04/18 12:38:28;;;;;;;6.22;1.65;;;18.90;61.50;;;;;;4991539;28;20500;-75
2022/04/18 12:40:56;;;;;;;4.65;1.80;;;19.10;61.40;;;;;;4991822;28;20032;-75
2022/04/18 12:43:30;;;;;;;4.70;1.42;;;19.00;61.60;;;;;;4991789;28;20122;-75
2022/04/18 12:46:01;;;;;;;6.63;2.08;;;19.00;60.80;;;;;;4991333;28;20030;-75
2022/04/18 12:48:27;;;;;;;2.92;1.30;;;19.10;60.50;;;;;;4991367;28;20113;-75
2022/04/18 12:50:55;;;;;;;3.25;1.20;;;19.10;60.90;;;;;;4991290;28;20034;-75
2022/04/18 12:53:22;;;;;;;5.90;1.65;;;19.10;60.90;;;;;;4991441;28;20035;-75
2022/04/18 12:56:08;;;;;;;3.28;1.60;;;19.20;61.40;;;;;;4991476;28;20530;-75
2022/04/18 12:58:39;;;;;;;4.68;1.58;;;19.20;59.80;;;;;;4990936;28;20046;-75
2022/04/18 13:01:05;;;;;;;4.00;1.40;;;19.20;60.70;;;;;;4990988;28;20072;-75
2022/04/18 13:03:41;;;;;;;3.97;1.40;;;19.10;61.60;;;;;;4991540;28;20030;-75
2022/04/18 13:06:06;;;;;;;2.60;1.20;;;19.40;61.80;;;;;;4991076;28;20108;-75
2022/04/18 13:08:39;;;;;;;6.35;1.60;;;19.30;59.60;;;;;;4991359;28;20636;-75
2022/04/18 13:11:05;;;;;;;6.97;1.48;;;19.30;59.60;;;;;;4991451;28;20034;-75
2022/04/18 13:13:31;;;;;;;5.13;2.30;;;19.20;59.80;;;;;;4990838;28;20038;-75
2022/04/18 13:15:57;;;;;;;5.63;1.75;;;19.20;59.00;;;;;;4991138;28;20345;-75
2022/04/18 13:18:25;;;;;;;3.35;1.25;;;19.20;59.90;;;;;;4990912;28;20074;-76
2022/04/18 13:20:51;;;;;;;4.05;1.50;;;19.30;60.60;;;;;;4990720;28;20022;-76
2022/04/18 13:23:17;;;;;;;4.03;1.48;;;19.30;59.70;;;;;;4990761;28;20063;-75